Terminal Aerodrome Forecast
Issued by NWS Cheyenne, WY

Home | Current Version | Previous Version | Text Only | Print | Product List | Glossary On
Versions: 1 2 3 4 5 6 7 8 9 10 11 12
000
FTUS45 KCYS 190520
TAFCYS
TAF
KCYS 190520Z 1906/2006 24008KT P6SM SKC
     FM191600 29012G22KT P6SM SCT100
     FM200100 29008KT P6SM SKC=

USA.gov is the U.S. government's official web portal to all federal, state and local government web resources and services.